createdAt,value
2019-01-28T00:00:17.077Z,9.57
2019-01-28T00:02:43.912Z,8.70
2019-01-28T00:05:10.417Z,10.90
2019-01-28T00:07:36.776Z,11.63
2019-01-28T00:10:05.146Z,11.03
2019-01-28T00:12:31.639Z,9.43
2019-01-28T00:14:58.054Z,9.70
2019-01-28T00:17:24.659Z,9.07
2019-01-28T00:19:51.079Z,11.07
2019-01-28T00:22:17.567Z,11.83
2019-01-28T00:24:44.477Z,12.87
2019-01-28T00:27:11.018Z,13.50
2019-01-28T00:29:37.589Z,14.03
2019-01-28T00:32:04.312Z,15.27
2019-01-28T00:34:30.754Z,12.30
2019-01-28T00:36:57.175Z,14.43
2019-01-28T00:39:23.735Z,8.37
2019-01-28T00:41:50.233Z,11.73
2019-01-28T00:44:16.618Z,11.13
2019-01-28T00:46:43.248Z,9.53
2019-01-28T00:49:09.580Z,8.37
2019-01-28T00:51:36.068Z,10.33
2019-01-28T00:54:02.687Z,12.77
2019-01-28T00:56:29.177Z,11.23
2019-01-28T00:58:55.729Z,10.33
2019-01-28T01:01:22.307Z,12.97
2019-01-28T01:03:48.899Z,14.87
2019-01-28T01:06:15.490Z,14.33
2019-01-28T01:08:41.941Z,13.90
2019-01-28T01:11:08.501Z,12.67
2019-01-28T01:13:34.983Z,10.27
2019-01-28T01:16:01.476Z,10.03
2019-01-28T01:18:29.398Z,10.83
2019-01-28T01:20:56.057Z,10.33
2019-01-28T01:23:22.549Z,9.90
2019-01-28T01:25:49.977Z,13.67
2019-01-28T01:28:16.468Z,12.73
2019-01-28T01:30:42.828Z,10.40
2019-01-28T01:33:09.396Z,10.13
2019-01-28T01:35:35.800Z,10.70
2019-01-28T01:38:02.215Z,12.43
2019-01-28T01:40:28.633Z,11.90
2019-01-28T01:42:55.223Z,12.67
2019-01-28T01:45:21.834Z,13.07
2019-01-28T01:47:48.379Z,8.80
2019-01-28T01:50:15.054Z,10.23
2019-01-28T01:52:41.617Z,8.87
2019-01-28T01:55:10.601Z,9.00
2019-01-28T01:57:37.431Z,8.83
2019-01-28T02:00:07.649Z,8.47
2019-01-28T02:02:34.250Z,9.03
2019-01-28T02:05:00.666Z,10.33
2019-01-28T02:07:27.308Z,9.47
2019-01-28T02:09:53.827Z,9.23
2019-01-28T02:12:20.292Z,9.50
2019-01-28T02:14:46.854Z,10.43
2019-01-28T02:17:13.230Z,8.63
2019-01-28T02:19:39.885Z,9.23
2019-01-28T02:22:06.314Z,9.60
2019-01-28T02:24:32.878Z,7.27
2019-01-28T02:26:59.285Z,7.43
2019-01-28T02:29:25.809Z,6.73
2019-01-28T02:31:52.283Z,7.83
2019-01-28T02:34:18.708Z,8.10
2019-01-28T02:36:45.171Z,9.10
2019-01-28T02:39:11.725Z,9.73
2019-01-28T02:41:38.191Z,6.27
2019-01-28T02:44:04.769Z,6.60
2019-01-28T02:46:31.287Z,5.40
2019-01-28T02:48:57.686Z,6.87
2019-01-28T02:51:24.023Z,4.90
2019-01-28T02:53:50.448Z,5.67
2019-01-28T02:56:16.794Z,4.23
2019-01-28T02:58:43.273Z,3.70
2019-01-28T03:01:09.848Z,4.17
2019-01-28T03:03:36.358Z,4.23
2019-01-28T03:06:03.132Z,3.80
2019-01-28T03:08:29.505Z,3.80
2019-01-28T03:10:55.866Z,3.50
2019-01-28T03:13:22.255Z,3.77
2019-01-28T03:15:48.726Z,3.80
2019-01-28T03:18:15.166Z,3.50
2019-01-28T03:20:41.724Z,3.00
2019-01-28T03:23:09.632Z,3.50
2019-01-28T03:25:36.215Z,3.20
2019-01-28T03:28:02.856Z,3.83
2019-01-28T03:30:29.224Z,3.60
2019-01-28T03:32:55.822Z,4.43
2019-01-28T03:35:22.287Z,5.00
2019-01-28T03:37:48.787Z,4.90
2019-01-28T03:40:17.113Z,5.80
2019-01-28T03:42:43.813Z,5.47
2019-01-28T03:45:13.013Z,4.77
2019-01-28T03:47:39.595Z,5.40
2019-01-28T03:50:10.246Z,5.53
2019-01-28T03:52:36.897Z,5.77
2019-01-28T03:55:06.086Z,5.27
2019-01-28T03:57:32.701Z,5.37
2019-01-28T03:59:59.225Z,5.33
2019-01-28T04:02:25.715Z,4.93
2019-01-28T04:04:52.324Z,5.30
2019-01-28T04:07:20.497Z,5.10
2019-01-28T04:09:47.090Z,4.67
2019-01-28T04:12:13.484Z,5.70
2019-01-28T04:14:40.205Z,6.40
2019-01-28T04:17:06.687Z,5.13
2019-01-28T04:19:33.086Z,5.03
2019-01-28T04:21:59.459Z,4.80
2019-01-28T04:24:26.198Z,5.43
2019-01-28T04:26:52.658Z,5.07
2019-01-28T04:29:19.143Z,4.53
2019-01-28T04:31:45.483Z,4.83
2019-01-28T04:34:12.024Z,5.40
2019-01-28T04:36:38.483Z,4.93
2019-01-28T04:39:06.141Z,4.67
2019-01-28T04:41:32.549Z,4.83
2019-01-28T04:43:59.012Z,4.33
2019-01-28T04:46:25.614Z,4.30
2019-01-28T04:48:52.151Z,4.87
2019-01-28T04:51:18.894Z,4.60
2019-01-28T04:53:46.326Z,4.97
2019-01-28T04:56:12.758Z,4.60
2019-01-28T04:58:39.237Z,4.70
2019-01-28T05:01:05.754Z,4.53
2019-01-28T05:03:32.375Z,5.20
2019-01-28T05:05:58.898Z,5.63
2019-01-28T05:08:25.290Z,5.77
2019-01-28T05:10:51.794Z,5.93
2019-01-28T05:13:18.271Z,6.00
2019-01-28T05:15:44.976Z,6.27
2019-01-28T05:18:11.358Z,5.83
2019-01-28T05:20:39.487Z,6.80
2019-01-28T05:23:06.057Z,6.00
2019-01-28T05:25:32.700Z,6.47
2019-01-28T05:27:59.229Z,6.07
2019-01-28T05:30:25.843Z,6.60
2019-01-28T05:32:55.927Z,6.60
2019-01-28T05:35:22.464Z,6.60
2019-01-28T05:37:49.275Z,6.93
2019-01-28T05:40:18.681Z,6.73
2019-01-28T05:42:45.239Z,6.93
2019-01-28T05:45:16.672Z,7.23
2019-01-28T05:47:43.043Z,6.80
2019-01-28T05:50:22.773Z,6.33
2019-01-28T05:52:49.331Z,6.50
2019-01-28T05:55:17.475Z,6.43
2019-01-28T05:57:45.042Z,6.40
2019-01-28T06:00:18.291Z,6.23
2019-01-28T06:02:44.761Z,6.27
2019-01-28T06:05:11.577Z,7.27
2019-01-28T06:07:38.301Z,6.77
2019-01-28T06:10:08.436Z,6.20
2019-01-28T06:12:34.844Z,7.27
2019-01-28T06:15:01.489Z,6.73
2019-01-28T06:17:27.945Z,6.97
2019-01-28T06:19:54.462Z,7.60
2019-01-28T06:22:20.857Z,7.80
2019-01-28T06:24:47.242Z,8.37
2019-01-28T06:27:13.811Z,8.40
2019-01-28T06:29:40.175Z,9.37
2019-01-28T06:32:06.601Z,9.37
2019-01-28T06:34:33.107Z,9.00
2019-01-28T06:36:59.584Z,9.60
2019-01-28T06:39:27.218Z,9.77
2019-01-28T06:41:53.589Z,10.37
2019-01-28T06:44:20.068Z,9.37
2019-01-28T06:46:46.706Z,9.60
2019-01-28T06:49:13.114Z,9.70
2019-01-28T06:51:39.521Z,10.57
2019-01-28T06:54:06.027Z,9.70
2019-01-28T06:56:32.464Z,10.07
2019-01-28T06:58:58.946Z,9.70
2019-01-28T07:01:25.451Z,9.73
2019-01-28T07:03:51.969Z,8.70
2019-01-28T07:06:18.544Z,9.83
2019-01-28T07:08:45.005Z,10.10
2019-01-28T07:11:11.487Z,9.87
2019-01-28T07:13:37.903Z,9.83
2019-01-28T07:16:05.028Z,9.77
2019-01-28T07:18:31.446Z,9.97
2019-01-28T07:20:58.104Z,10.70
2019-01-28T07:23:24.972Z,10.43
2019-01-28T07:25:51.490Z,10.83
2019-01-28T07:28:17.974Z,11.40
2019-01-28T07:30:44.534Z,10.43
2019-01-28T07:33:12.887Z,11.73
2019-01-28T07:35:39.256Z,11.50
2019-01-28T07:38:05.859Z,12.43
2019-01-28T07:40:34.900Z,10.67
2019-01-28T07:43:01.371Z,8.77
2019-01-28T07:45:34.029Z,10.80
2019-01-28T07:48:03.022Z,10.67
2019-01-28T07:50:28.843Z,9.53
2019-01-28T07:52:55.365Z,10.80
2019-01-28T07:55:21.888Z,10.10
2019-01-28T07:57:48.340Z,10.83
2019-01-28T08:00:19.404Z,10.10
2019-01-28T08:02:46.616Z,10.07
2019-01-28T08:05:14.607Z,10.90
2019-01-28T08:07:41.218Z,10.50
2019-01-28T08:10:10.630Z,10.50
2019-01-28T08:12:37.185Z,10.67
2019-01-28T08:15:07.168Z,10.67
2019-01-28T08:17:33.633Z,10.67
2019-01-28T08:20:00.030Z,10.00
2019-01-28T08:22:26.488Z,10.67
2019-01-28T08:24:54.577Z,12.57
2019-01-28T08:27:21.275Z,11.23
2019-01-28T08:29:47.644Z,10.70
2019-01-28T08:34:49.522Z,9.23
2019-01-28T08:37:16.041Z,9.43
2019-01-28T08:39:43.017Z,8.00
2019-01-28T08:42:09.695Z,8.43
2019-01-28T08:44:36.457Z,7.03
2019-01-28T08:47:03.265Z,7.67
2019-01-28T08:49:30.603Z,7.83
2019-01-28T08:51:57.135Z,7.17
2019-01-28T08:54:23.629Z,7.27
2019-01-28T08:56:50.160Z,7.20
2019-01-28T08:59:16.761Z,7.57
2019-01-28T09:01:43.398Z,7.27
2019-01-28T09:04:09.867Z,5.97
2019-01-28T09:06:36.487Z,6.30
2019-01-28T09:09:06.866Z,6.37
2019-01-28T09:11:33.484Z,6.10
2019-01-28T09:14:00.148Z,6.00
2019-01-28T09:16:26.779Z,5.10
2019-01-28T09:18:53.233Z,5.10
2019-01-28T09:26:24.434Z,5.10
2019-01-28T09:28:51.020Z,6.43
2019-01-28T09:31:17.810Z,8.90
2019-01-28T09:33:44.360Z,5.97
2019-01-28T09:36:11.054Z,5.43
2019-01-28T09:38:37.657Z,4.63
2019-01-28T09:41:04.395Z,4.87
2019-01-28T09:43:30.891Z,5.40
2019-01-28T09:45:57.256Z,5.10
2019-01-28T09:48:25.000Z,4.33
2019-01-28T09:50:51.666Z,5.13
2019-01-28T09:53:18.573Z,4.77
2019-01-28T09:55:45.119Z,3.87
2019-01-28T09:58:12.855Z,4.70
2019-01-28T10:00:44.920Z,4.83
2019-01-28T10:03:11.650Z,4.20
2019-01-28T10:05:38.335Z,4.60
2019-01-28T10:08:06.390Z,3.70
2019-01-28T10:10:33.212Z,3.73
2019-01-28T10:12:59.842Z,3.50
2019-01-28T10:15:29.013Z,2.87
2019-01-28T10:17:55.753Z,3.00
2019-01-28T10:20:28.868Z,2.80
2019-01-28T10:22:55.613Z,3.07
2019-01-28T10:25:22.216Z,2.97
2019-01-28T10:27:48.757Z,2.83
2019-01-28T10:30:34.752Z,3.23
2019-01-28T10:33:01.572Z,3.77
2019-01-28T10:35:29.465Z,3.50
2019-01-28T10:37:56.073Z,3.33
2019-01-28T10:40:28.210Z,4.33
2019-01-28T10:42:54.836Z,3.33
2019-01-28T10:45:22.237Z,4.67
2019-01-28T10:47:49.331Z,3.90
2019-01-28T10:50:18.230Z,4.67
2019-01-28T10:52:44.898Z,4.97
2019-01-28T10:55:13.665Z,5.20
2019-01-28T10:57:40.284Z,4.63
2019-01-28T11:00:16.026Z,4.77
2019-01-28T11:02:42.726Z,4.80
2019-01-28T11:05:09.457Z,4.57
2019-01-28T11:07:35.837Z,4.97
2019-01-28T11:10:05.744Z,4.73
2019-01-28T11:12:32.264Z,4.00
2019-01-28T11:14:58.652Z,3.67
2019-01-28T11:17:25.255Z,3.50
2019-01-28T11:19:51.755Z,3.70
2019-01-28T11:22:18.504Z,4.67
2019-01-28T11:24:45.174Z,4.17
2019-01-28T11:27:11.630Z,4.27
2019-01-28T11:34:43.468Z,3.60
2019-01-28T11:37:09.938Z,3.27
2019-01-28T11:39:36.417Z,3.23
2019-01-28T11:42:03.518Z,3.40
2019-01-28T11:44:30.200Z,2.17
2019-01-28T11:46:56.584Z,3.33
2019-01-28T11:49:23.104Z,3.67
2019-01-28T11:51:49.793Z,3.47
2019-01-28T11:54:16.329Z,3.23
2019-01-28T11:56:43.412Z,3.30
2019-01-28T11:59:10.096Z,3.10
2019-01-28T12:01:36.716Z,2.63
2019-01-28T12:04:03.787Z,2.67
2019-01-28T12:06:30.379Z,3.40
2019-01-28T12:08:57.117Z,3.30
2019-01-28T12:11:25.020Z,2.93
2019-01-28T12:13:51.436Z,2.90
2019-01-28T12:16:18.052Z,2.93
2019-01-28T12:18:44.686Z,2.90
2019-01-28T12:21:11.284Z,2.63
2019-01-28T12:23:38.055Z,2.80
2019-01-28T12:26:04.976Z,2.43
2019-01-28T12:28:31.593Z,2.50
2019-01-28T12:30:58.081Z,3.33
2019-01-28T12:33:26.743Z,3.00
2019-01-28T12:35:53.298Z,3.13
2019-01-28T12:38:20.158Z,2.90
2019-01-28T12:40:46.933Z,2.50
2019-01-28T12:43:13.891Z,2.87
2019-01-28T12:45:40.370Z,2.43
2019-01-28T12:48:07.152Z,2.83
2019-01-28T12:50:33.748Z,2.57
2019-01-28T12:53:00.252Z,2.50
2019-01-28T12:55:26.765Z,2.70
2019-01-28T12:57:53.548Z,2.73
2019-01-28T13:05:45.964Z,2.43
2019-01-28T13:08:12.350Z,2.80
2019-01-28T13:10:39.074Z,2.10
2019-01-28T13:13:05.586Z,2.47
2019-01-28T13:15:33.396Z,2.30
2019-01-28T13:18:00.139Z,2.87
2019-01-28T13:20:27.501Z,2.73
2019-01-28T13:22:54.063Z,2.83
2019-01-28T13:25:23.816Z,2.40
2019-01-28T13:27:50.464Z,2.90
2019-01-28T13:30:33.108Z,2.37
2019-01-28T13:33:00.275Z,2.50
2019-01-28T13:35:26.855Z,2.80
2019-01-28T13:37:56.222Z,2.40
2019-01-28T13:40:23.155Z,2.70
2019-01-28T13:42:49.791Z,3.23
2019-01-28T13:45:18.618Z,5.87
2019-01-28T13:47:45.727Z,6.63
2019-01-28T13:50:17.797Z,3.17
2019-01-28T13:52:44.409Z,4.27
2019-01-28T13:55:11.126Z,3.93
2019-01-28T13:57:37.634Z,4.30
2019-01-28T14:00:08.329Z,3.23
2019-01-28T14:02:34.813Z,3.50
2019-01-28T14:05:01.382Z,3.23
2019-01-28T14:07:28.364Z,3.40
2019-01-28T14:09:54.783Z,4.03
2019-01-28T14:12:21.237Z,3.77
2019-01-28T14:14:47.854Z,3.97
2019-01-28T14:17:14.290Z,4.00
2019-01-28T14:19:46.281Z,3.97
2019-01-28T14:22:09.175Z,4.30
2019-01-28T14:24:35.716Z,4.40
2019-01-28T14:27:02.498Z,4.80
2019-01-28T14:29:30.004Z,4.10
2019-01-28T14:31:56.575Z,5.17
2019-01-28T14:34:23.283Z,4.30
2019-01-28T14:36:49.853Z,5.60
2019-01-28T14:39:16.361Z,4.57
2019-01-28T14:41:42.735Z,4.90
2019-01-28T14:44:14.239Z,4.30
2019-01-28T14:46:40.616Z,5.70
2019-01-28T14:49:07.088Z,4.60
2019-01-28T14:51:35.744Z,4.40
2019-01-28T14:54:02.841Z,4.60
2019-01-28T14:56:29.351Z,5.37
2019-01-28T14:58:55.989Z,3.03
2019-01-28T15:01:22.467Z,4.23
2019-01-28T15:03:48.951Z,4.27
2019-01-28T15:06:17.378Z,4.50
2019-01-28T15:08:43.789Z,4.23
2019-01-28T15:11:10.400Z,3.80
2019-01-28T15:13:36.922Z,4.10
2019-01-28T15:16:08.933Z,3.43
2019-01-28T15:18:31.968Z,4.03
2019-01-28T15:20:58.621Z,3.80
2019-01-28T15:23:25.132Z,3.73
2019-01-28T15:25:51.539Z,3.23
2019-01-28T15:28:18.096Z,5.33
2019-01-28T15:30:44.720Z,3.70
2019-01-28T15:33:11.721Z,3.00
2019-01-28T15:35:38.264Z,3.07
2019-01-28T15:38:04.972Z,3.60
2019-01-28T15:40:35.464Z,3.57
2019-01-28T15:43:02.043Z,3.07
2019-01-28T15:45:31.803Z,3.50
2019-01-28T15:48:00.059Z,3.10
2019-01-28T15:50:27.358Z,3.57
2019-01-28T15:52:53.877Z,3.67
2019-01-28T15:55:29.604Z,4.20
2019-01-28T15:57:56.084Z,3.50
2019-01-28T16:00:25.167Z,3.63
2019-01-28T16:02:51.855Z,3.20
2019-01-28T16:05:18.840Z,3.63
2019-01-28T16:07:45.484Z,3.13
2019-01-28T16:10:16.561Z,3.40
2019-01-28T16:12:43.163Z,3.30
2019-01-28T16:15:21.781Z,4.07
2019-01-28T16:17:48.398Z,3.13
2019-01-28T16:20:18.545Z,3.40
2019-01-28T16:22:43.807Z,3.40
2019-01-28T16:25:11.982Z,3.67
2019-01-28T16:27:40.406Z,3.00
2019-01-28T16:30:13.573Z,3.27
2019-01-28T16:32:40.193Z,3.87
2019-01-28T16:35:09.661Z,3.60
2019-01-28T16:37:36.300Z,4.07
2019-01-28T16:40:05.690Z,3.30
2019-01-28T16:42:32.242Z,3.20
2019-01-28T16:44:58.726Z,3.00
2019-01-28T16:47:25.975Z,2.90
2019-01-28T16:49:52.935Z,3.13
2019-01-28T16:52:19.369Z,2.50
2019-01-28T16:54:45.739Z,2.80
2019-01-28T16:57:12.352Z,2.93
2019-01-28T16:59:38.706Z,3.40
2019-01-28T17:02:05.169Z,2.67
2019-01-28T17:04:31.900Z,3.33
2019-01-28T17:06:58.540Z,3.03
2019-01-28T17:09:25.168Z,3.07
2019-01-28T17:11:51.706Z,2.53
2019-01-28T17:14:18.263Z,2.93
2019-01-28T17:16:44.793Z,3.10
2019-01-28T17:19:11.352Z,3.13
2019-01-28T17:21:37.763Z,2.60
2019-01-28T17:24:04.396Z,3.60
2019-01-28T17:26:30.815Z,3.27
2019-01-28T17:28:57.335Z,3.37
2019-01-28T17:31:23.754Z,3.20
2019-01-28T17:33:50.141Z,2.40
2019-01-28T17:36:16.650Z,3.03
2019-01-28T17:38:43.164Z,3.50
2019-01-28T17:41:09.542Z,2.60
2019-01-28T17:43:36.059Z,3.23
2019-01-28T17:46:04.755Z,3.67
2019-01-28T17:48:31.190Z,3.53
2019-01-28T17:50:57.709Z,3.83
2019-01-28T17:53:24.246Z,4.03
2019-01-28T17:55:51.983Z,3.50
2019-01-28T17:58:18.464Z,4.17
2019-01-28T18:00:46.885Z,4.33
2019-01-28T18:03:13.406Z,4.00
2019-01-28T18:05:40.048Z,3.63
2019-01-28T18:08:06.533Z,3.70
2019-01-28T18:10:33.013Z,4.17
2019-01-28T18:12:59.649Z,4.10
2019-01-28T18:15:27.169Z,3.57
2019-01-28T18:17:53.740Z,3.70
2019-01-28T18:20:20.419Z,3.73
2019-01-28T18:22:47.323Z,3.03
2019-01-28T18:25:17.527Z,2.77
2019-01-28T18:27:44.146Z,2.27
2019-01-28T18:30:14.325Z,2.37
2019-01-28T18:32:40.724Z,2.50
2019-01-28T18:35:07.647Z,2.73
2019-01-28T18:37:34.000Z,2.70
2019-01-28T18:40:00.402Z,2.60
2019-01-28T18:42:28.199Z,2.30
2019-01-28T18:44:54.721Z,2.40
2019-01-28T18:47:21.223Z,2.70
2019-01-28T18:49:47.872Z,2.73
2019-01-28T18:52:14.328Z,2.90
2019-01-28T18:54:40.847Z,2.83
2019-01-28T18:57:07.348Z,3.30
2019-01-28T18:59:34.909Z,2.83
2019-01-28T19:02:01.673Z,3.40
2019-01-28T19:04:28.046Z,2.77
2019-01-28T19:07:12.957Z,3.17
2019-01-28T19:09:40.314Z,2.87
2019-01-28T19:12:08.767Z,3.37
2019-01-28T19:14:37.246Z,3.30
2019-01-28T19:17:23.503Z,5.43
2019-01-28T19:20:01.556Z,4.70
2019-01-28T19:22:28.115Z,4.73
2019-01-28T19:24:54.792Z,3.87
2019-01-28T19:27:21.264Z,3.13
2019-01-28T19:32:20.692Z,4.13
2019-01-28T19:34:47.221Z,4.10
2019-01-28T19:37:13.653Z,3.70
2019-01-28T19:39:41.021Z,3.37
2019-01-28T19:42:07.563Z,3.50
2019-01-28T19:44:34.070Z,4.03
2019-01-28T19:47:00.673Z,4.13
2019-01-28T19:49:27.143Z,5.20
2019-01-28T19:51:53.518Z,3.93
2019-01-28T19:54:20.023Z,3.80
2019-01-28T19:56:47.844Z,3.90
2019-01-28T19:59:14.423Z,3.93
2019-01-28T20:01:40.842Z,4.17
2019-01-28T20:04:07.378Z,4.00
2019-01-28T20:06:34.031Z,4.10
2019-01-28T20:09:00.380Z,4.90
2019-01-28T20:11:27.204Z,4.20
2019-01-28T20:13:53.787Z,4.27
2019-01-28T20:16:20.241Z,4.67
2019-01-28T20:18:46.635Z,3.97
2019-01-28T20:21:13.146Z,4.10
2019-01-28T20:23:40.816Z,4.50
2019-01-28T20:26:07.311Z,4.43
2019-01-28T20:28:35.584Z,3.57
2019-01-28T20:31:02.760Z,4.63
2019-01-28T20:33:29.243Z,4.97
2019-01-28T20:35:55.754Z,4.60
2019-01-28T20:38:22.145Z,4.70
2019-01-28T20:40:48.745Z,4.67
2019-01-28T20:43:15.117Z,5.20
2019-01-28T20:45:45.235Z,5.43
2019-01-28T20:48:09.920Z,4.97
2019-01-28T20:50:36.329Z,6.47
2019-01-28T20:53:03.084Z,5.97
2019-01-28T20:55:29.678Z,6.00
2019-01-28T20:57:56.315Z,7.80
2019-01-28T21:00:25.798Z,6.70
2019-01-28T21:02:52.399Z,5.40
2019-01-28T21:05:20.027Z,5.97
2019-01-28T21:07:46.712Z,5.73
2019-01-28T21:12:53.239Z,5.70
2019-01-28T21:15:20.164Z,6.03
2019-01-28T21:17:47.217Z,5.80
2019-01-28T21:20:16.289Z,7.30
2019-01-28T21:22:42.771Z,7.17
2019-01-28T21:25:12.249Z,8.27
2019-01-28T21:27:38.860Z,6.87
2019-01-28T21:30:10.029Z,7.37
2019-01-28T21:32:36.772Z,8.30
2019-01-28T21:35:06.002Z,8.23
2019-01-28T21:37:32.967Z,9.57
2019-01-28T21:39:59.392Z,11.90
2019-01-28T21:42:25.768Z,11.23
2019-01-28T21:44:52.349Z,9.80
2019-01-28T21:47:18.722Z,10.63
2019-01-28T21:49:45.362Z,9.37
2019-01-28T21:52:11.958Z,8.27
2019-01-28T21:54:38.461Z,8.30
2019-01-28T21:57:05.093Z,7.30
2019-01-28T21:59:31.768Z,7.80
2019-01-28T22:01:58.173Z,7.00
2019-01-28T22:04:24.637Z,7.00
2019-01-28T22:06:51.075Z,7.50
2019-01-28T22:09:18.575Z,5.57
2019-01-28T22:11:45.060Z,4.97
2019-01-28T22:14:11.438Z,4.67
2019-01-28T22:16:37.996Z,4.63
2019-01-28T22:19:04.590Z,4.37
2019-01-28T22:21:31.106Z,4.60
2019-01-28T22:23:57.476Z,4.30
2019-01-28T22:26:23.874Z,5.27
2019-01-28T22:28:50.253Z,4.80
2019-01-28T22:31:17.068Z,4.60
2019-01-28T22:33:43.644Z,4.27
2019-01-28T22:36:10.263Z,4.10
2019-01-28T22:38:36.740Z,5.00
2019-01-28T22:41:03.371Z,4.73
2019-01-28T22:43:30.111Z,4.33
2019-01-28T22:45:56.570Z,5.47
2019-01-28T22:48:23.070Z,5.20
2019-01-28T22:50:49.718Z,4.80
2019-01-28T22:53:16.073Z,4.80
2019-01-28T22:55:42.436Z,5.27
2019-01-28T22:58:08.951Z,5.07
2019-01-28T23:00:41.090Z,5.20
2019-01-28T23:03:07.909Z,4.40
2019-01-28T23:05:34.489Z,4.43
2019-01-28T23:08:01.021Z,4.53
2019-01-28T23:10:27.388Z,5.20
2019-01-28T23:12:53.802Z,4.67
2019-01-28T23:15:20.161Z,4.83
2019-01-28T23:17:46.802Z,4.60
2019-01-28T23:20:13.380Z,5.50
2019-01-28T23:22:39.766Z,5.10
2019-01-28T23:25:06.333Z,5.13
2019-01-28T23:27:32.750Z,5.50
2019-01-28T23:29:59.112Z,4.90
2019-01-28T23:32:25.538Z,5.80
2019-01-28T23:34:53.127Z,5.57
2019-01-28T23:37:19.516Z,5.10
2019-01-28T23:39:45.879Z,4.90
2019-01-28T23:42:12.369Z,4.43
2019-01-28T23:44:38.885Z,5.53
2019-01-28T23:47:05.514Z,5.03
2019-01-28T23:49:31.992Z,5.30
2019-01-28T23:51:58.427Z,5.57
2019-01-28T23:54:25.053Z,5.53
2019-01-28T23:56:51.453Z,5.10
2019-01-28T23:59:17.827Z,5.40
